createdAt,value
2018-12-16T00:00:24.090Z,0
2018-12-16T00:01:32.748Z,0
2018-12-16T00:02:41.402Z,0
2018-12-16T00:03:50.070Z,0
2018-12-16T00:04:58.734Z,0
2018-12-16T00:06:07.417Z,0
2018-12-16T00:07:16.331Z,0
2018-12-16T00:08:24.998Z,0
2018-12-16T00:09:33.915Z,0
2018-12-16T00:10:42.588Z,0
2018-12-16T00:11:51.258Z,0
2018-12-16T00:13:01.553Z,0
2018-12-16T00:14:10.220Z,0
2018-12-16T00:15:18.892Z,0
2018-12-16T00:16:27.595Z,0
2018-12-16T00:17:36.267Z,0
2018-12-16T00:18:44.925Z,0
2018-12-16T00:19:53.599Z,0
2018-12-16T00:21:02.261Z,0
2018-12-16T00:22:10.990Z,0
2018-12-16T00:23:19.658Z,0
2018-12-16T00:24:28.316Z,0
2018-12-16T00:25:36.972Z,0
2018-12-16T00:26:45.636Z,0
2018-12-16T00:27:54.304Z,0
2018-12-16T00:29:02.962Z,0
2018-12-16T00:30:11.627Z,0
2018-12-16T00:31:20.295Z,0
2018-12-16T00:32:28.987Z,0
2018-12-16T00:33:37.649Z,0
2018-12-16T00:34:46.319Z,0
2018-12-16T00:35:55.241Z,0
2018-12-16T00:37:03.910Z,0
2018-12-16T00:38:12.568Z,0
2018-12-16T00:39:21.489Z,0
2018-12-16T00:40:30.400Z,0
2018-12-16T00:41:39.060Z,0
2018-12-16T00:42:47.730Z,0
2018-12-16T00:43:56.413Z,0
2018-12-16T00:45:05.076Z,0
2018-12-16T00:46:13.732Z,0
2018-12-16T00:47:22.659Z,0
2018-12-16T00:48:31.324Z,0
2018-12-16T00:49:39.990Z,0
2018-12-16T00:50:48.649Z,0
2018-12-16T00:51:57.568Z,0
2018-12-16T00:53:06.247Z,0
2018-12-16T00:54:14.909Z,0
2018-12-16T00:55:23.573Z,0
2018-12-16T00:56:32.235Z,0
2018-12-16T00:57:40.901Z,0
2018-12-16T00:58:49.573Z,0
2018-12-16T00:59:58.241Z,0
2018-12-16T01:01:06.910Z,0
2018-12-16T01:02:15.576Z,0
2018-12-16T01:03:24.239Z,0
2018-12-16T01:04:32.900Z,0
2018-12-16T01:05:41.573Z,0
2018-12-16T01:06:50.239Z,0
2018-12-16T01:07:58.914Z,0
2018-12-16T01:09:07.575Z,0
2018-12-16T01:10:16.254Z,0
2018-12-16T01:11:24.921Z,0
2018-12-16T01:12:33.856Z,0
2018-12-16T01:13:42.519Z,0
2018-12-16T01:14:51.186Z,0
2018-12-16T01:15:59.848Z,0
2018-12-16T01:17:08.515Z,0
2018-12-16T01:18:17.180Z,0
2018-12-16T01:19:26.099Z,0
2018-12-16T01:20:34.765Z,0
2018-12-16T01:21:43.428Z,0
2018-12-16T01:22:52.103Z,0
2018-12-16T01:24:00.761Z,0
2018-12-16T01:25:09.422Z,0
2018-12-16T01:26:18.094Z,0
2018-12-16T01:27:26.758Z,0
2018-12-16T01:28:35.417Z,0
2018-12-16T01:29:44.077Z,0
2018-12-16T01:30:52.737Z,0
2018-12-16T01:32:01.408Z,0
2018-12-16T01:33:10.066Z,0
2018-12-16T01:34:18.734Z,0
2018-12-16T01:35:27.651Z,0
2018-12-16T01:36:36.310Z,0
2018-12-16T01:37:45.237Z,0
2018-12-16T01:38:53.907Z,0
2018-12-16T01:40:02.575Z,0
2018-12-16T01:41:11.234Z,0
2018-12-16T01:42:19.900Z,0
2018-12-16T01:43:28.563Z,0
2018-12-16T01:44:37.225Z,0
2018-12-16T01:45:45.884Z,0
2018-12-16T01:46:54.549Z,0
2018-12-16T01:48:03.208Z,0
2018-12-16T01:49:11.873Z,0
2018-12-16T01:50:20.791Z,0
2018-12-16T01:51:29.457Z,0
2018-12-16T01:52:38.118Z,0
2018-12-16T01:53:46.785Z,0
2018-12-16T01:54:55.967Z,0
2018-12-16T01:56:04.872Z,0
2018-12-16T01:57:13.532Z,0
2018-12-16T01:58:22.461Z,0
2018-12-16T01:59:31.133Z,0
2018-12-16T02:00:39.789Z,0
2018-12-16T02:01:48.452Z,0
2018-12-16T02:02:57.116Z,0
2018-12-16T02:04:06.050Z,0
2018-12-16T02:05:14.819Z,0
2018-12-16T02:06:23.482Z,0
2018-12-16T02:07:32.146Z,0
2018-12-16T02:08:40.817Z,0
2018-12-16T02:09:49.736Z,0
2018-12-16T02:10:58.391Z,0
2018-12-16T02:12:07.108Z,0
2018-12-16T02:13:15.782Z,0
2018-12-16T02:14:24.455Z,0
2018-12-16T02:15:33.132Z,0
2018-12-16T02:16:41.801Z,0
2018-12-16T02:17:50.453Z,0
2018-12-16T02:18:59.126Z,0
2018-12-16T02:20:08.039Z,0
2018-12-16T02:21:16.710Z,0
2018-12-16T02:22:25.367Z,0
2018-12-16T02:23:34.038Z,0
2018-12-16T02:24:43.020Z,0
2018-12-16T02:25:51.687Z,0
2018-12-16T02:27:00.338Z,0
2018-12-16T02:28:09.009Z,0
2018-12-16T02:29:17.932Z,0
2018-12-16T02:30:26.607Z,0
2018-12-16T02:31:35.545Z,0
2018-12-16T02:32:44.215Z,0
2018-12-16T02:33:52.909Z,0
2018-12-16T02:35:01.587Z,0
2018-12-16T02:36:10.270Z,0
2018-12-16T02:37:18.938Z,0
2018-12-16T02:38:27.604Z,0
2018-12-16T02:39:36.266Z,0
2018-12-16T02:40:44.950Z,0
2018-12-16T02:41:53.605Z,0
2018-12-16T02:43:02.271Z,0
2018-12-16T02:44:10.934Z,0
2018-12-16T02:45:19.868Z,0
2018-12-16T02:46:28.823Z,0
2018-12-16T02:47:37.488Z,0
2018-12-16T02:48:46.148Z,0
2018-12-16T02:49:54.826Z,0
2018-12-16T02:51:03.502Z,0
2018-12-16T02:52:12.182Z,0
2018-12-16T02:53:20.868Z,0
2018-12-16T02:54:29.529Z,0
2018-12-16T02:55:38.282Z,0
2018-12-16T02:56:46.941Z,0
2018-12-16T02:57:55.623Z,0
2018-12-16T02:59:04.313Z,0
2018-12-16T03:00:13.256Z,0
2018-12-16T03:01:21.951Z,0
2018-12-16T03:02:30.611Z,0
2018-12-16T03:03:39.286Z,0
2018-12-16T03:04:47.956Z,0
2018-12-16T03:05:56.882Z,0
2018-12-16T03:07:05.556Z,0
2018-12-16T03:08:14.240Z,0
2018-12-16T03:09:22.911Z,0
2018-12-16T03:10:31.592Z,0
2018-12-16T03:11:40.628Z,0
2018-12-16T03:12:49.570Z,0
2018-12-16T03:13:58.606Z,0
2018-12-16T03:15:07.279Z,0
2018-12-16T03:16:15.949Z,0
2018-12-16T03:17:24.610Z,0
2018-12-16T03:18:33.300Z,0
2018-12-16T03:19:41.958Z,0
2018-12-16T03:20:50.893Z,0
2018-12-16T03:21:59.805Z,0
2018-12-16T03:23:14.652Z,0
2018-12-16T03:24:23.330Z,0
2018-12-16T03:25:32.002Z,0
2018-12-16T03:26:42.617Z,0
2018-12-16T03:27:51.284Z,0
2018-12-16T03:28:59.956Z,0
2018-12-16T03:30:08.937Z,0
2018-12-16T03:31:18.405Z,0
2018-12-16T03:32:27.356Z,0
2018-12-16T03:33:36.058Z,0
2018-12-16T03:34:44.735Z,0
2018-12-16T03:35:53.404Z,0
2018-12-16T03:37:02.068Z,0
2018-12-16T03:38:10.752Z,0
2018-12-16T03:39:19.427Z,0
2018-12-16T03:40:28.099Z,0
2018-12-16T03:41:36.760Z,0
2018-12-16T03:42:45.961Z,0
2018-12-16T03:43:54.635Z,0
2018-12-16T03:45:03.595Z,0
2018-12-16T03:46:12.523Z,0
2018-12-16T03:47:21.447Z,0
2018-12-16T03:48:30.142Z,0
2018-12-16T03:49:38.800Z,0
2018-12-16T03:50:47.478Z,0
2018-12-16T03:51:56.405Z,0
2018-12-16T03:53:05.087Z,0
2018-12-16T03:54:14.273Z,0
2018-12-16T03:55:22.961Z,0
2018-12-16T03:56:31.647Z,0
2018-12-16T03:57:40.325Z,0
2018-12-16T03:58:49.094Z,0
2018-12-16T03:59:57.759Z,0
2018-12-16T04:01:06.682Z,0
2018-12-16T04:02:15.370Z,0
2018-12-16T04:03:24.290Z,0
2018-12-16T04:04:32.948Z,0
2018-12-16T04:05:41.626Z,0
2018-12-16T04:06:50.295Z,0
2018-12-16T04:07:59.221Z,0
2018-12-16T04:09:07.885Z,0
2018-12-16T04:10:16.579Z,0
2018-12-16T04:11:25.261Z,0
2018-12-16T04:12:33.939Z,0
2018-12-16T04:13:42.617Z,0
2018-12-16T04:14:51.552Z,0
2018-12-16T04:16:00.240Z,0
2018-12-16T04:17:08.919Z,0
2018-12-16T04:18:17.843Z,0
2018-12-16T04:19:26.574Z,0
2018-12-16T04:20:35.244Z,0
2018-12-16T04:21:44.159Z,0
2018-12-16T04:22:52.830Z,0
2018-12-16T04:24:01.496Z,0
2018-12-16T04:25:10.426Z,0
2018-12-16T04:26:19.084Z,0
2018-12-16T04:27:27.766Z,0
2018-12-16T04:28:36.745Z,0
2018-12-16T04:29:45.672Z,0
2018-12-16T04:30:54.333Z,0
2018-12-16T04:32:03.004Z,0
2018-12-16T04:33:11.671Z,0
2018-12-16T04:34:20.344Z,0
2018-12-16T04:35:28.999Z,0
2018-12-16T04:36:37.935Z,0
2018-12-16T04:37:46.603Z,0
2018-12-16T04:38:55.267Z,0
2018-12-16T04:40:03.953Z,0
2018-12-16T04:41:12.609Z,0
2018-12-16T04:42:21.293Z,0
2018-12-16T04:43:30.212Z,0
2018-12-16T04:44:38.893Z,0
2018-12-16T04:45:47.551Z,0
2018-12-16T04:46:56.229Z,0
2018-12-16T04:48:05.151Z,0
2018-12-16T04:49:14.087Z,0
2018-12-16T04:50:22.754Z,0
2018-12-16T04:51:31.426Z,0
2018-12-16T04:52:40.119Z,0
2018-12-16T04:53:48.793Z,0
2018-12-16T04:54:57.723Z,0
2018-12-16T04:56:06.396Z,0
2018-12-16T04:57:15.061Z,0
2018-12-16T04:58:23.732Z,0
2018-12-16T04:59:32.406Z,0
2018-12-16T05:00:41.074Z,0
2018-12-16T05:01:49.994Z,0
2018-12-16T05:02:58.673Z,0
2018-12-16T05:04:07.335Z,0
2018-12-16T05:05:16.008Z,0
2018-12-16T05:06:26.173Z,0
2018-12-16T05:07:34.862Z,0
2018-12-16T05:08:43.529Z,0
2018-12-16T05:09:52.210Z,0
2018-12-16T05:11:00.904Z,0
2018-12-16T05:12:09.654Z,0
2018-12-16T05:13:18.318Z,0
2018-12-16T05:14:27.241Z,0
2018-12-16T05:15:35.900Z,0
2018-12-16T05:16:44.569Z,0
2018-12-16T05:17:53.247Z,0
2018-12-16T05:19:01.918Z,0
2018-12-16T05:20:10.590Z,0
2018-12-16T05:21:19.242Z,0
2018-12-16T05:22:27.921Z,0
2018-12-16T05:23:41.760Z,0
2018-12-16T05:24:50.744Z,0
2018-12-16T05:25:59.402Z,0
2018-12-16T05:27:08.074Z,0
2018-12-16T05:28:16.990Z,0
2018-12-16T05:29:25.660Z,0
2018-12-16T05:30:34.318Z,0
2018-12-16T05:31:43.245Z,0
2018-12-16T05:32:51.916Z,0
2018-12-16T05:34:00.584Z,0
2018-12-16T05:35:09.260Z,0
2018-12-16T05:36:18.182Z,0
2018-12-16T05:37:26.850Z,0
2018-12-16T05:38:35.507Z,0
2018-12-16T05:39:44.180Z,0
2018-12-16T05:40:52.832Z,0
2018-12-16T05:42:01.756Z,0
2018-12-16T05:43:10.418Z,0
2018-12-16T05:44:19.093Z,0
2018-12-16T05:45:27.747Z,0
2018-12-16T05:46:36.662Z,0
2018-12-16T05:47:45.328Z,0
2018-12-16T05:48:54.001Z,0
2018-12-16T05:50:02.665Z,0
2018-12-16T05:51:11.326Z,0
2018-12-16T05:52:19.984Z,0
2018-12-16T05:53:28.655Z,0
2018-12-16T05:54:37.328Z,0
2018-12-16T05:55:45.994Z,0
2018-12-16T05:56:54.660Z,0
2018-12-16T05:58:03.315Z,0
2018-12-16T05:59:12.258Z,0
2018-12-16T06:00:20.924Z,0
2018-12-16T06:01:29.590Z,0
2018-12-16T06:02:38.251Z,0
2018-12-16T06:03:46.917Z,0
2018-12-16T06:04:55.650Z,0
2018-12-16T06:06:04.329Z,0
2018-12-16T06:07:12.989Z,0
2018-12-16T06:08:21.656Z,0
2018-12-16T06:09:30.574Z,0
2018-12-16T06:10:39.242Z,0
2018-12-16T06:11:47.909Z,0
2018-12-16T06:12:56.573Z,0
2018-12-16T06:14:05.238Z,0
2018-12-16T06:15:13.903Z,0
2018-12-16T06:16:22.566Z,0
2018-12-16T06:17:31.484Z,0
2018-12-16T06:18:40.155Z,0
2018-12-16T06:19:48.830Z,0
2018-12-16T06:20:57.497Z,0
2018-12-16T06:22:06.415Z,0
2018-12-16T06:23:15.079Z,0
2018-12-16T06:24:23.743Z,0
2018-12-16T06:25:32.423Z,0
2018-12-16T06:26:41.134Z,0
2018-12-16T06:27:49.801Z,0
2018-12-16T06:28:58.459Z,0
2018-12-16T06:30:07.123Z,0
2018-12-16T06:31:15.789Z,0
2018-12-16T06:32:24.721Z,0
2018-12-16T06:33:33.384Z,0
2018-12-16T06:34:42.047Z,0
2018-12-16T06:35:50.716Z,0
2018-12-16T06:36:59.389Z,0
2018-12-16T06:38:08.050Z,0
2018-12-16T06:39:16.713Z,0
2018-12-16T06:40:25.380Z,0
2018-12-16T06:41:34.045Z,0
2018-12-16T06:42:42.707Z,0
2018-12-16T06:43:51.375Z,0
2018-12-16T06:45:00.043Z,0
2018-12-16T06:46:08.705Z,0
2018-12-16T06:47:17.699Z,0
2018-12-16T06:48:26.431Z,0
2018-12-16T06:49:35.105Z,0
2018-12-16T06:50:43.770Z,0
2018-12-16T06:51:52.456Z,0
2018-12-16T06:53:01.130Z,0
2018-12-16T06:54:09.790Z,0
2018-12-16T06:55:18.716Z,0
2018-12-16T06:56:27.465Z,0
2018-12-16T06:57:36.142Z,0
2018-12-16T06:58:44.800Z,0
2018-12-16T06:59:53.461Z,0
2018-12-16T07:01:02.122Z,0
2018-12-16T07:02:10.813Z,0
2018-12-16T07:03:19.477Z,4
2018-12-16T07:04:28.130Z,4
2018-12-16T07:05:36.804Z,0
2018-12-16T07:06:45.474Z,4
2018-12-16T07:07:54.149Z,4
2018-12-16T07:09:02.817Z,4
2018-12-16T07:10:11.484Z,4
2018-12-16T07:11:20.169Z,8
2018-12-16T07:12:29.119Z,8
2018-12-16T07:13:37.856Z,8
2018-12-16T07:14:46.573Z,8
2018-12-16T07:15:55.244Z,12
2018-12-16T07:17:03.971Z,12
2018-12-16T07:18:12.661Z,12
2018-12-16T07:19:21.379Z,16
2018-12-16T07:20:30.332Z,16
2018-12-16T07:21:39.047Z,16
2018-12-16T07:22:49.323Z,20
2018-12-16T07:23:58.048Z,24
2018-12-16T07:25:06.810Z,24
2018-12-16T07:26:15.742Z,32
2018-12-16T07:27:24.474Z,36
2018-12-16T07:28:33.209Z,36
2018-12-16T07:29:42.151Z,40
2018-12-16T07:30:50.843Z,40
2018-12-16T07:31:59.561Z,40
2018-12-16T07:33:08.477Z,44
2018-12-16T07:34:17.185Z,48
2018-12-16T07:35:25.899Z,56
2018-12-16T07:36:34.602Z,64
2018-12-16T07:37:43.307Z,64
2018-12-16T07:38:52.010Z,64
2018-12-16T07:40:00.697Z,68
2018-12-16T07:41:09.490Z,72
2018-12-16T07:42:18.422Z,84
2018-12-16T07:43:27.140Z,92
2018-12-16T07:44:35.822Z,104
2018-12-16T07:45:44.507Z,112
2018-12-16T07:46:53.262Z,120
2018-12-16T07:48:02.197Z,132
2018-12-16T07:49:11.189Z,144
2018-12-16T07:50:20.169Z,152
2018-12-16T07:51:28.909Z,156
2018-12-16T07:52:37.565Z,172
2018-12-16T07:53:46.345Z,180
2018-12-16T07:54:55.052Z,196
2018-12-16T07:56:03.740Z,212
2018-12-16T07:57:12.735Z,228
2018-12-16T07:58:21.422Z,236
2018-12-16T07:59:30.451Z,232
2018-12-16T08:00:40.449Z,252
2018-12-16T08:01:49.176Z,256
2018-12-16T08:02:57.865Z,256
2018-12-16T08:04:06.555Z,256
2018-12-16T08:05:15.228Z,256
2018-12-16T08:06:23.961Z,268
2018-12-16T08:07:32.642Z,272
2018-12-16T08:08:41.300Z,272
2018-12-16T08:09:50.218Z,276
2018-12-16T08:10:59.137Z,284
2018-12-16T08:12:07.797Z,292
2018-12-16T08:13:16.476Z,300
2018-12-16T08:14:25.139Z,308
2018-12-16T08:15:33.822Z,320
2018-12-16T08:16:42.483Z,332
2018-12-16T08:17:51.146Z,352
2018-12-16T08:19:06.789Z,368
2018-12-16T08:20:15.804Z,372
2018-12-16T08:21:24.473Z,380
2018-12-16T08:22:33.144Z,400
2018-12-16T08:23:42.023Z,416
2018-12-16T08:24:50.939Z,440
2018-12-16T08:25:59.602Z,476
2018-12-16T08:27:08.269Z,520
2018-12-16T08:28:16.933Z,556
2018-12-16T08:29:25.617Z,588
2018-12-16T08:30:34.282Z,604
2018-12-16T08:31:42.938Z,604
2018-12-16T08:32:51.606Z,640
2018-12-16T08:34:00.322Z,676
2018-12-16T08:35:08.990Z,720
2018-12-16T08:36:17.662Z,744
2018-12-16T08:37:26.338Z,824
2018-12-16T08:38:35.005Z,860
2018-12-16T08:39:44.993Z,868
2018-12-16T08:40:53.656Z,868
2018-12-16T08:42:02.315Z,908
2018-12-16T08:43:10.988Z,924
2018-12-16T08:44:19.658Z,908
2018-12-16T08:45:28.325Z,872
2018-12-16T08:46:36.999Z,876
2018-12-16T08:47:45.677Z,860
2018-12-16T08:48:54.344Z,860
2018-12-16T08:50:03.012Z,856
2018-12-16T08:51:11.673Z,888
2018-12-16T08:52:20.341Z,920
2018-12-16T08:53:29.001Z,984
2018-12-16T08:54:37.671Z,1044
2018-12-16T08:55:46.332Z,1064
2018-12-16T08:56:55.002Z,1092
2018-12-16T08:58:03.925Z,1112
2018-12-16T08:59:12.666Z,1152
2018-12-16T09:00:21.330Z,1168
2018-12-16T09:01:31.548Z,1160
2018-12-16T09:02:40.205Z,1172
2018-12-16T09:03:48.868Z,1168
2018-12-16T09:04:57.530Z,1132
2018-12-16T09:06:06.199Z,1124
2018-12-16T09:07:14.861Z,1124
2018-12-16T09:08:23.526Z,1044
2018-12-16T09:09:32.192Z,1028
2018-12-16T09:10:40.963Z,1016
2018-12-16T09:11:49.883Z,1092
2018-12-16T09:12:58.804Z,1156
2018-12-16T09:14:07.495Z,1188
2018-12-16T09:15:16.157Z,1192
2018-12-16T09:16:24.826Z,1120
2018-12-16T09:17:33.745Z,1020
2018-12-16T09:18:42.664Z,968
2018-12-16T09:19:51.581Z,972
2018-12-16T09:21:00.513Z,1108
2018-12-16T09:22:09.180Z,1196
2018-12-16T09:23:17.845Z,1236
2018-12-16T09:24:26.504Z,1180
2018-12-16T09:25:35.174Z,1232
2018-12-16T09:26:44.360Z,1256
2018-12-16T09:27:53.032Z,1320
2018-12-16T09:29:01.692Z,1400
2018-12-16T09:30:10.361Z,1472
2018-12-16T09:31:19.025Z,1616
2018-12-16T09:32:27.691Z,1664
2018-12-16T09:33:36.354Z,1660
2018-12-16T09:34:45.016Z,1580
2018-12-16T09:35:53.687Z,1732
2018-12-16T09:37:02.353Z,1716
2018-12-16T09:38:11.095Z,1688
2018-12-16T09:39:19.759Z,1736
2018-12-16T09:40:28.428Z,1828
2018-12-16T09:41:37.099Z,1788
2018-12-16T09:42:45.775Z,1856
2018-12-16T09:43:54.436Z,1800
2018-12-16T09:45:03.104Z,1808
2018-12-16T09:46:11.774Z,1964
2018-12-16T09:47:20.447Z,2072
2018-12-16T09:48:29.110Z,2016
2018-12-16T09:49:37.779Z,1960
2018-12-16T09:50:46.956Z,1924
2018-12-16T09:51:56.187Z,1928
2018-12-16T09:53:04.860Z,1980
2018-12-16T09:54:13.532Z,2040
2018-12-16T09:55:22.208Z,2044
2018-12-16T09:56:30.877Z,2176
2018-12-16T09:57:39.560Z,2268
2018-12-16T09:58:48.233Z,2332
2018-12-16T09:59:56.909Z,2432
2018-12-16T10:01:05.566Z,2496
2018-12-16T10:02:14.241Z,2524
2018-12-16T10:03:22.903Z,2596
2018-12-16T10:04:31.618Z,2624
2018-12-16T10:05:40.532Z,2636
2018-12-16T10:06:49.213Z,2636
2018-12-16T10:07:58.137Z,2476
2018-12-16T10:09:06.803Z,2472
2018-12-16T10:10:15.547Z,2520
2018-12-16T10:11:24.226Z,2600
2018-12-16T10:12:32.894Z,2720
2018-12-16T10:13:41.557Z,2756
2018-12-16T10:14:50.493Z,2840
2018-12-16T10:15:59.151Z,3020
2018-12-16T10:17:07.822Z,3292
2018-12-16T10:18:16.483Z,3736
2018-12-16T10:19:25.159Z,4124
2018-12-16T10:20:33.817Z,4460
2018-12-16T10:21:42.825Z,4588
2018-12-16T10:22:51.591Z,4356
2018-12-16T10:24:00.268Z,4120
2018-12-16T10:25:09.184Z,3732
2018-12-16T10:26:17.846Z,3668
2018-12-16T10:27:26.505Z,3444
2018-12-16T10:28:35.171Z,3092
2018-12-16T10:29:43.847Z,2848
2018-12-16T10:30:52.847Z,2740
2018-12-16T10:32:01.778Z,2756
2018-12-16T10:33:10.435Z,2784
2018-12-16T10:34:19.112Z,2804
2018-12-16T10:35:27.791Z,2892
2018-12-16T10:36:36.717Z,2844
2018-12-16T10:37:45.474Z,2744
2018-12-16T10:38:54.156Z,2632
2018-12-16T10:40:02.823Z,2392
2018-12-16T10:41:11.490Z,2340
2018-12-16T10:42:20.150Z,2344
2018-12-16T10:43:29.721Z,2436
2018-12-16T10:44:38.386Z,2556
2018-12-16T10:45:47.051Z,2688
2018-12-16T10:46:55.982Z,2764
2018-12-16T10:48:04.723Z,2936
2018-12-16T10:49:13.398Z,2976
2018-12-16T10:50:22.067Z,3228
2018-12-16T10:51:30.748Z,3428
2018-12-16T10:52:39.406Z,3760
2018-12-16T10:53:48.095Z,4036
2018-12-16T10:55:02.800Z,4256
2018-12-16T10:56:11.484Z,4328
2018-12-16T10:57:20.139Z,4068
2018-12-16T10:58:28.823Z,3808
2018-12-16T10:59:37.501Z,3336
2018-12-16T11:00:47.203Z,2952
2018-12-16T11:01:55.882Z,2624
2018-12-16T11:03:04.548Z,2488
2018-12-16T11:04:13.213Z,2400
2018-12-16T11:05:21.872Z,2260
2018-12-16T11:06:30.551Z,2136
2018-12-16T11:07:39.217Z,2144
2018-12-16T11:08:48.153Z,2248
2018-12-16T11:09:56.806Z,2344
2018-12-16T11:11:05.474Z,2488
2018-12-16T11:12:14.138Z,2688
2018-12-16T11:13:22.808Z,2952
2018-12-16T11:14:31.464Z,3176
2018-12-16T11:15:40.142Z,3288
2018-12-16T11:16:48.803Z,3380
2018-12-16T11:17:57.469Z,3336
2018-12-16T11:19:06.131Z,3252
2018-12-16T11:20:14.796Z,3236
2018-12-16T11:21:23.466Z,3144
2018-12-16T11:22:32.400Z,2916
2018-12-16T11:23:41.070Z,2660
2018-12-16T11:24:49.975Z,2420
2018-12-16T11:25:58.898Z,2300
2018-12-16T11:27:07.568Z,2192
2018-12-16T11:28:17.293Z,2236
2018-12-16T11:29:25.950Z,2324
2018-12-16T11:30:34.619Z,2280
2018-12-16T11:31:43.289Z,2484
2018-12-16T11:32:51.967Z,2504
2018-12-16T11:34:00.880Z,2528
2018-12-16T11:35:09.549Z,2656
2018-12-16T11:36:18.215Z,2772
2018-12-16T11:37:26.904Z,2720
2018-12-16T11:38:35.576Z,2624
2018-12-16T11:39:44.238Z,2444
2018-12-16T11:40:52.908Z,2272
2018-12-16T11:42:01.589Z,2028
2018-12-16T11:43:10.265Z,1936
2018-12-16T11:44:18.934Z,1900
2018-12-16T11:45:27.865Z,1888
2018-12-16T11:46:36.783Z,1804
2018-12-16T11:47:45.470Z,1776
2018-12-16T11:48:54.170Z,1732
2018-12-16T11:50:02.837Z,1740
2018-12-16T11:51:11.780Z,1728
2018-12-16T11:52:20.450Z,1728
2018-12-16T11:53:29.114Z,1764
2018-12-16T11:54:37.782Z,1680
2018-12-16T11:55:46.441Z,1600
2018-12-16T11:56:55.116Z,1828
2018-12-16T11:58:04.044Z,2000
2018-12-16T11:59:12.715Z,1796
2018-12-16T12:00:21.394Z,1484
2018-12-16T12:01:30.055Z,1264
2018-12-16T12:02:39.431Z,1144
2018-12-16T12:03:48.102Z,1036
2018-12-16T12:04:56.774Z,928
2018-12-16T12:06:05.437Z,932
2018-12-16T12:07:14.106Z,888
2018-12-16T12:08:22.769Z,912
2018-12-16T12:09:31.434Z,1068
2018-12-16T12:10:40.091Z,1216
2018-12-16T12:11:48.762Z,1424
2018-12-16T12:12:57.426Z,1568
2018-12-16T12:14:06.099Z,1576
2018-12-16T12:15:14.766Z,1628
2018-12-16T12:16:23.438Z,1684
2018-12-16T12:17:32.111Z,1676
2018-12-16T12:18:41.120Z,1732
2018-12-16T12:19:49.790Z,1816
2018-12-16T12:20:58.711Z,1820
2018-12-16T12:22:10.878Z,1776
2018-12-16T12:23:19.542Z,1776
2018-12-16T12:24:28.471Z,1760
2018-12-16T12:25:38.243Z,1752
2018-12-16T12:26:46.917Z,1812
2018-12-16T12:27:55.847Z,1836
2018-12-16T12:29:04.523Z,1864
2018-12-16T12:30:13.190Z,1848
2018-12-16T12:31:21.859Z,1912
2018-12-16T12:32:30.535Z,1964
2018-12-16T12:33:39.455Z,2024
2018-12-16T12:34:48.118Z,2024
2018-12-16T12:35:56.789Z,1948
2018-12-16T12:37:05.463Z,1884
2018-12-16T12:38:14.123Z,1888
2018-12-16T12:39:22.786Z,1956
2018-12-16T12:40:31.506Z,2000
2018-12-16T12:41:40.178Z,1992
2018-12-16T12:42:48.838Z,2068
2018-12-16T12:43:57.506Z,2100
2018-12-16T12:45:06.510Z,2056
2018-12-16T12:46:15.195Z,2084
2018-12-16T12:47:23.856Z,2048
2018-12-16T12:48:32.926Z,1940
2018-12-16T12:49:47.225Z,1876
2018-12-16T12:50:55.885Z,1812
2018-12-16T12:52:04.589Z,1720
2018-12-16T12:53:13.258Z,1624
2018-12-16T12:54:22.191Z,1492
2018-12-16T12:55:33.786Z,1440
2018-12-16T12:56:42.451Z,1420
2018-12-16T12:57:51.116Z,1400
2018-12-16T12:58:59.792Z,1424
2018-12-16T13:00:08.467Z,1528
2018-12-16T13:01:17.389Z,1716
2018-12-16T13:02:26.055Z,1868
2018-12-16T13:03:34.982Z,1964
2018-12-16T13:04:43.662Z,1988
2018-12-16T13:05:52.332Z,1984
2018-12-16T13:07:01.318Z,2152
2018-12-16T13:08:09.982Z,2300
2018-12-16T13:09:18.653Z,2260
2018-12-16T13:10:27.314Z,2176
2018-12-16T13:11:35.978Z,2044
2018-12-16T13:12:44.650Z,1880
2018-12-16T13:13:53.310Z,1784
2018-12-16T13:15:01.978Z,1676
2018-12-16T13:16:11.252Z,1632
2018-12-16T13:17:20.172Z,1532
2018-12-16T13:18:28.834Z,1460
2018-12-16T13:19:37.505Z,1456
2018-12-16T13:20:46.171Z,1472
2018-12-16T13:21:55.100Z,1524
2018-12-16T13:23:03.766Z,1588
2018-12-16T13:24:12.687Z,1680
2018-12-16T13:25:21.606Z,1752
2018-12-16T13:26:30.602Z,1772
2018-12-16T13:27:39.263Z,1780
2018-12-16T13:28:48.207Z,1788
2018-12-16T13:29:56.871Z,1776
2018-12-16T13:31:05.547Z,1732
2018-12-16T13:32:14.218Z,1660
2018-12-16T13:33:22.889Z,1620
2018-12-16T13:34:31.823Z,1620
2018-12-16T13:35:40.485Z,1656
2018-12-16T13:36:50.084Z,1608
2018-12-16T13:37:58.745Z,1480
2018-12-16T13:39:07.427Z,1340
2018-12-16T13:40:16.092Z,1232
2018-12-16T13:41:25.016Z,1204
2018-12-16T13:42:33.677Z,1268
2018-12-16T13:43:42.361Z,1316
2018-12-16T13:44:51.276Z,1264
2018-12-16T13:45:59.964Z,1192
2018-12-16T13:47:08.628Z,1096
2018-12-16T13:48:17.558Z,1068
2018-12-16T13:49:26.221Z,1036
2018-12-16T13:50:34.882Z,1076
2018-12-16T13:51:43.823Z,1104
2018-12-16T13:52:52.489Z,1136
2018-12-16T13:54:01.165Z,1176
2018-12-16T13:55:09.843Z,1216
2018-12-16T13:56:18.523Z,1244
2018-12-16T13:57:27.183Z,1288
2018-12-16T13:58:35.867Z,1344
2018-12-16T13:59:44.530Z,1344
2018-12-16T14:00:53.206Z,1280
2018-12-16T14:02:01.866Z,1200
2018-12-16T14:03:10.608Z,1140
2018-12-16T14:04:19.263Z,1092
2018-12-16T14:05:28.190Z,1032
2018-12-16T14:06:36.884Z,988
2018-12-16T14:07:45.563Z,980
2018-12-16T14:08:54.481Z,948
2018-12-16T14:10:03.138Z,928
2018-12-16T14:11:11.879Z,968
2018-12-16T14:12:20.547Z,972
2018-12-16T14:13:29.222Z,980
2018-12-16T14:14:37.881Z,988
2018-12-16T14:15:52.241Z,988
2018-12-16T14:17:01.158Z,924
2018-12-16T14:18:10.110Z,856
2018-12-16T14:19:18.764Z,860
2018-12-16T14:20:27.447Z,852
2018-12-16T14:21:36.117Z,856
2018-12-16T14:22:44.800Z,896
2018-12-16T14:23:53.538Z,868
2018-12-16T14:25:02.203Z,776
2018-12-16T14:26:10.888Z,752
2018-12-16T14:27:19.815Z,736
2018-12-16T14:28:28.485Z,724
2018-12-16T14:29:37.143Z,692
2018-12-16T14:30:45.813Z,628
2018-12-16T14:31:54.471Z,592
2018-12-16T14:33:03.153Z,576
2018-12-16T14:34:11.815Z,548
2018-12-16T14:35:20.495Z,524
2018-12-16T14:36:30.653Z,496
2018-12-16T14:37:39.341Z,480
2018-12-16T14:38:48.004Z,464
2018-12-16T14:39:56.672Z,452
2018-12-16T14:41:06.005Z,476
2018-12-16T14:42:14.675Z,476
2018-12-16T14:43:23.605Z,432
2018-12-16T14:44:32.272Z,440
2018-12-16T14:45:40.939Z,432
2018-12-16T14:46:49.598Z,412
2018-12-16T14:47:58.278Z,356
2018-12-16T14:49:06.943Z,316
2018-12-16T14:50:15.865Z,328
2018-12-16T14:51:24.526Z,352
2018-12-16T14:52:33.201Z,348
2018-12-16T14:53:41.866Z,356
2018-12-16T14:54:50.533Z,352
2018-12-16T14:56:01.850Z,348
2018-12-16T14:57:10.520Z,332
2018-12-16T14:58:19.185Z,304
2018-12-16T14:59:27.881Z,272
2018-12-16T15:00:36.553Z,256
2018-12-16T15:01:45.220Z,252
2018-12-16T15:02:53.887Z,244
2018-12-16T15:04:02.555Z,224
2018-12-16T15:05:11.227Z,212
2018-12-16T15:06:19.895Z,196
2018-12-16T15:07:28.816Z,188
2018-12-16T15:08:37.473Z,184
2018-12-16T15:09:46.142Z,176
2018-12-16T15:10:54.810Z,168
2018-12-16T15:12:03.488Z,156
2018-12-16T15:13:12.154Z,140
2018-12-16T15:14:20.827Z,120
2018-12-16T15:15:29.488Z,108
2018-12-16T15:16:38.163Z,112
2018-12-16T15:17:49.428Z,108
2018-12-16T15:18:58.121Z,92
2018-12-16T15:20:06.782Z,88
2018-12-16T15:21:15.449Z,84
2018-12-16T15:22:24.377Z,80
2018-12-16T15:23:33.038Z,76
2018-12-16T15:24:41.707Z,68
2018-12-16T15:25:50.383Z,60
2018-12-16T15:26:59.263Z,48
2018-12-16T15:28:08.185Z,44
2018-12-16T15:29:16.846Z,36
2018-12-16T15:30:25.508Z,32
2018-12-16T15:31:34.183Z,20
2018-12-16T15:32:42.849Z,16
2018-12-16T15:33:51.519Z,16
2018-12-16T15:35:00.194Z,16
2018-12-16T15:36:08.865Z,12
2018-12-16T15:37:17.785Z,12
2018-12-16T15:38:26.711Z,12
2018-12-16T15:39:35.657Z,8
2018-12-16T15:40:44.332Z,8
2018-12-16T15:41:53.006Z,8
2018-12-16T15:43:01.680Z,8
2018-12-16T15:44:10.350Z,8
2018-12-16T15:45:20.672Z,4
2018-12-16T15:46:29.346Z,4
2018-12-16T15:47:38.012Z,4
2018-12-16T15:48:46.679Z,0
2018-12-16T15:49:55.336Z,4
2018-12-16T15:51:04.019Z,4
2018-12-16T15:52:12.688Z,0
2018-12-16T15:53:21.360Z,0
2018-12-16T15:54:30.034Z,0
2018-12-16T15:55:38.704Z,0
2018-12-16T15:56:47.377Z,0
2018-12-16T15:57:56.052Z,0
2018-12-16T15:59:04.717Z,0
2018-12-16T16:00:13.441Z,0
2018-12-16T16:01:22.118Z,0
2018-12-16T16:02:30.783Z,0
2018-12-16T16:03:39.468Z,0
2018-12-16T16:04:48.490Z,0
2018-12-16T16:05:57.637Z,0
2018-12-16T16:07:06.676Z,0
2018-12-16T16:08:23.133Z,0
2018-12-16T16:09:32.450Z,0
2018-12-16T16:10:41.120Z,0